Fibre, Michigan
Current Conditions -  °F | °C
As of 5:35 PM on Friday 31 Oct 2014 (Local Time) from KCIU Reporting Station
Overcast Overcast  
Wind Chill: 21°   Ceiling: 4100
Heat Index: 32°   Visibility: 10mi
Dew Point: 19°   Wind: 17mph
Humidity: 60%   Direction: 360°N
Pressure: 30.29"   Gusts: 24mph
Location:  46.1892°N, 84.6083°W
Report Text: KCIU 312135Z AUTO 36015G21KT 10SM OVC041 00/M07 A3029 RMK AO1
Loading
Personal Weather Stations






























Interactive Weather Map
Tropical Storm Tracking
New forecast layout! Learn more

10-Day Weather Forecast

Advertisements
Track Severe Weather on mobile